DAL1095 KATL-KCMH
Flight info
| Callsign | DAL1095 |
|---|---|
| Flight time | 1h 8m |
| Altitude | 33000 |
| Route | PADGT2 SMTTH Q67 JONEN DCT MCGNS SCRLT2 |
| Aircraft | A319/M-VGDW/C |
Departure
| Time | 2026-05-06 02:50 |
|---|---|
| Airport | Hartsfield Jackson Atlanta International Airport (KATL) |
Arrival
| Time | 2026-05-06 03:59 |
|---|---|
| Airport | John Glenn Columbus International Airport (KCMH) |
| Time | Latitude | Longitude | Altitude | Speed | Heading |
|---|---|---|---|---|---|
| 2026-05-06 02:28 | 33.63981 | -84.43319 | 1010 ft | 0 kts | 90° |
| 2026-05-06 02:38 | 33.63981 | -84.43347 | 1011 ft | 3 kts | 90° |
| 2026-05-06 02:39 | 33.63974 | -84.43376 | 1011 ft | 3 kts | 49° |
| 2026-05-06 02:39 | 33.63953 | -84.43388 | 1011 ft | 2 kts | 358° |
| 2026-05-06 02:39 | 33.63952 | -84.43388 | 1011 ft | 0 kts | 358° |
| 2026-05-06 02:42 | 33.63961 | -84.43388 | 1011 ft | 2 kts | 358° |
| 2026-05-06 02:43 | 33.63989 | -84.43389 | 1011 ft | 6 kts | 358° |
| 2026-05-06 02:43 | 33.64056 | -84.43393 | 1011 ft | 12 kts | 358° |
| 2026-05-06 02:43 | 33.64164 | -84.43396 | 1011 ft | 18 kts | 0° |
| 2026-05-06 02:43 | 33.64294 | -84.43396 | 1011 ft | 18 kts | 0° |
| 2026-05-06 02:44 | 33.64379 | -84.43394 | 1010 ft | 11 kts | 1° |
| 2026-05-06 02:44 | 33.64449 | -84.43359 | 1010 ft | 12 kts | 62° |
| 2026-05-06 02:44 | 33.64461 | -84.43246 | 1007 ft | 15 kts | 89° |
| 2026-05-06 02:44 | 33.64462 | -84.43107 | 1005 ft | 17 kts | 91° |
| 2026-05-06 02:45 | 33.64458 | -84.42952 | 1003 ft | 19 kts | 91° |
| 2026-05-06 02:45 | 33.64462 | -84.42779 | 999 ft | 21 kts | 85° |
| 2026-05-06 02:45 | 33.64468 | -84.42593 | 995 ft | 23 kts | 89° |
| 2026-05-06 02:45 | 33.64469 | -84.42390 | 988 ft | 18 kts | 78° |
| 2026-05-06 02:46 | 33.64544 | -84.42278 | 985 ft | 18 kts | 84° |
| 2026-05-06 02:46 | 33.64542 | -84.42112 | 981 ft | 21 kts | 91° |
| 2026-05-06 02:46 | 33.64542 | -84.41927 | 977 ft | 23 kts | 90° |
| 2026-05-06 02:46 | 33.64543 | -84.41729 | 974 ft | 24 kts | 90° |
| 2026-05-06 02:47 | 33.64542 | -84.41528 | 973 ft | 23 kts | 90° |
| 2026-05-06 02:47 | 33.64542 | -84.41332 | 973 ft | 23 kts | 89° |
| 2026-05-06 02:47 | 33.64541 | -84.41140 | 974 ft | 22 kts | 91° |
| 2026-05-06 02:47 | 33.64541 | -84.40952 | 973 ft | 22 kts | 91° |
| 2026-05-06 02:48 | 33.64565 | -84.40765 | 973 ft | 22 kts | 77° |
| 2026-05-06 02:48 | 33.64570 | -84.40619 | 972 ft | 7 kts | 92° |
| 2026-05-06 02:48 | 33.64578 | -84.40588 | 971 ft | 0 kts | 57° |
| 2026-05-06 02:48 | 33.64579 | -84.40588 | 971 ft | 0 kts | 57° |
| 2026-05-06 02:49 | 33.64581 | -84.40582 | 971 ft | 0 kts | 53° |
| 2026-05-06 02:49 | 33.64593 | -84.40573 | 972 ft | 4 kts | 21° |
| 2026-05-06 02:49 | 33.64650 | -84.40572 | 973 ft | 11 kts | 347° |
| 2026-05-06 02:49 | 33.64679 | -84.40685 | 975 ft | 23 kts | 269° |
| 2026-05-06 02:50 | 33.64678 | -84.41214 | 977 ft | 101 kts | 270° |
| 2026-05-06 02:50 | 33.64679 | -84.42329 | 1020 ft | 159 kts | 268° |
| 2026-05-06 02:50 | 33.64694 | -84.43660 | 1614 ft | 165 kts | 267° |
| 2026-05-06 02:50 | 33.64740 | -84.45080 | 2303 ft | 175 kts | 268° |
| 2026-05-06 02:51 | 33.64853 | -84.46549 | 3020 ft | 185 kts | 274° |
| 2026-05-06 02:51 | 33.65321 | -84.48081 | 3593 ft | 207 kts | 293° |
| 2026-05-06 02:51 | 33.66038 | -84.49652 | 4194 ft | 222 kts | 292° |
| 2026-05-06 02:51 | 33.66742 | -84.51383 | 4784 ft | 238 kts | 290° |
| 2026-05-06 02:52 | 33.67455 | -84.53284 | 5361 ft | 256 kts | 290° |
| 2026-05-06 02:52 | 33.68194 | -84.55260 | 6112 ft | 265 kts | 292° |
| 2026-05-06 02:52 | 33.69264 | -84.57054 | 7031 ft | 274 kts | 317° |
| 2026-05-06 02:52 | 33.70988 | -84.58089 | 7975 ft | 283 kts | 343° |
| 2026-05-06 02:53 | 33.72973 | -84.58209 | 8909 ft | 289 kts | 357° |
| 2026-05-06 02:53 | 33.74991 | -84.58153 | 9814 ft | 290 kts | 356° |
| 2026-05-06 02:53 | 33.77014 | -84.58106 | 10692 ft | 291 kts | 356° |
| 2026-05-06 02:53 | 33.79036 | -84.58070 | 11547 ft | 292 kts | 356° |
| 2026-05-06 02:54 | 33.81064 | -84.57859 | 12373 ft | 297 kts | 3° |
| 2026-05-06 02:54 | 33.83112 | -84.57330 | 13030 ft | 308 kts | 9° |
| 2026-05-06 02:54 | 33.85223 | -84.56593 | 13384 ft | 326 kts | 11° |
| 2026-05-06 02:54 | 33.87473 | -84.55764 | 13778 ft | 341 kts | 11° |
| 2026-05-06 02:55 | 33.89767 | -84.54909 | 14397 ft | 347 kts | 11° |
| 2026-05-06 02:55 | 33.92094 | -84.54037 | 15092 ft | 351 kts | 11° |
| 2026-05-06 02:55 | 33.94471 | -84.53153 | 15778 ft | 354 kts | 11° |
| 2026-05-06 02:55 | 33.96833 | -84.52277 | 16392 ft | 359 kts | 11° |
| 2026-05-06 02:56 | 33.99246 | -84.51386 | 17028 ft | 362 kts | 10° |
| 2026-05-06 02:56 | 34.01662 | -84.50491 | 17651 ft | 366 kts | 11° |
| 2026-05-06 02:56 | 34.04108 | -84.49588 | 18213 ft | 370 kts | 10° |
| 2026-05-06 02:56 | 34.06602 | -84.48666 | 18765 ft | 375 kts | 10° |
| 2026-05-06 02:57 | 34.09111 | -84.47739 | 19345 ft | 378 kts | 10° |
| 2026-05-06 02:57 | 34.11685 | -84.46783 | 19904 ft | 382 kts | 10° |
| 2026-05-06 02:57 | 34.14256 | -84.45832 | 20452 ft | 385 kts | 10° |
| 2026-05-06 02:57 | 34.16841 | -84.44872 | 21011 ft | 388 kts | 10° |
| 2026-05-06 02:58 | 34.19443 | -84.43908 | 21514 ft | 392 kts | 10° |
| 2026-05-06 02:58 | 34.22098 | -84.42922 | 22032 ft | 396 kts | 10° |
| 2026-05-06 02:58 | 34.24710 | -84.41952 | 22532 ft | 399 kts | 10° |
| 2026-05-06 02:58 | 34.27397 | -84.40954 | 23016 ft | 402 kts | 10° |
| 2026-05-06 02:59 | 34.30094 | -84.40053 | 23511 ft | 402 kts | 6° |
| 2026-05-06 02:59 | 34.32836 | -84.39323 | 24021 ft | 402 kts | 4° |
| 2026-05-06 02:59 | 34.34261 | -84.38975 | 24292 ft | 403 kts | 4° |
| 2026-05-06 02:59 | 34.37001 | -84.38319 | 24808 ft | 404 kts | 3° |
| 2026-05-06 03:00 | 34.39743 | -84.37665 | 25305 ft | 405 kts | 3° |
| 2026-05-06 03:00 | 34.42529 | -84.36997 | 25809 ft | 406 kts | 2° |
| 2026-05-06 03:00 | 34.45313 | -84.36330 | 26246 ft | 409 kts | 2° |
| 2026-05-06 03:00 | 34.48087 | -84.35662 | 26684 ft | 410 kts | 2° |
| 2026-05-06 03:01 | 34.50914 | -84.34980 | 27134 ft | 412 kts | 2° |
| 2026-05-06 03:01 | 34.53715 | -84.34305 | 27510 ft | 415 kts | 2° |
| 2026-05-06 03:01 | 34.56553 | -84.33621 | 27912 ft | 416 kts | 1° |
| 2026-05-06 03:01 | 34.59415 | -84.32929 | 28338 ft | 417 kts | 2° |
| 2026-05-06 03:02 | 34.62274 | -84.32237 | 28748 ft | 418 kts | 1° |
| 2026-05-06 03:02 | 34.65130 | -84.31544 | 29195 ft | 418 kts | 1° |
| 2026-05-06 03:02 | 34.67938 | -84.30861 | 29742 ft | 415 kts | 1° |
| 2026-05-06 03:02 | 34.70782 | -84.30157 | 30310 ft | 411 kts | 0° |
| 2026-05-06 03:03 | 34.73561 | -84.29468 | 30829 ft | 407 kts | 359° |
| 2026-05-06 03:03 | 34.76319 | -84.28815 | 31254 ft | 406 kts | 359° |
| 2026-05-06 03:03 | 34.79093 | -84.28157 | 31596 ft | 407 kts | 359° |
| 2026-05-06 03:03 | 34.81905 | -84.27482 | 31925 ft | 408 kts | 359° |
| 2026-05-06 03:04 | 34.84688 | -84.26810 | 32286 ft | 408 kts | 359° |
| 2026-05-06 03:04 | 34.87471 | -84.26131 | 32655 ft | 408 kts | 358° |
| 2026-05-06 03:04 | 34.90270 | -84.25452 | 32965 ft | 407 kts | 359° |
| 2026-05-06 03:05 | 34.95819 | -84.24095 | 33040 ft | 408 kts | 359° |
| 2026-05-06 03:05 | 35.01407 | -84.22727 | 33035 ft | 408 kts | 359° |
| 2026-05-06 03:06 | 35.06971 | -84.21363 | 33043 ft | 407 kts | 359° |
| 2026-05-06 03:06 | 35.12590 | -84.19984 | 33055 ft | 409 kts | 359° |
| 2026-05-06 03:07 | 35.18185 | -84.18609 | 33059 ft | 408 kts | 359° |
| 2026-05-06 03:07 | 35.23755 | -84.17240 | 33069 ft | 407 kts | 359° |
| 2026-05-06 03:08 | 35.29323 | -84.15866 | 33060 ft | 408 kts | 359° |
| 2026-05-06 03:08 | 35.34910 | -84.14492 | 33036 ft | 408 kts | 359° |
| 2026-05-06 03:09 | 35.40458 | -84.13126 | 33023 ft | 408 kts | 359° |
| 2026-05-06 03:09 | 35.46038 | -84.11746 | 32999 ft | 409 kts | 359° |
| 2026-05-06 03:10 | 35.51635 | -84.10364 | 32984 ft | 411 kts | 359° |
| 2026-05-06 03:10 | 35.57245 | -84.08971 | 32975 ft | 410 kts | 359° |
| 2026-05-06 03:11 | 35.62824 | -84.07589 | 32978 ft | 409 kts | 359° |
| 2026-05-06 03:11 | 35.68434 | -84.06194 | 32969 ft | 410 kts | 359° |
| 2026-05-06 03:12 | 35.74070 | -84.04793 | 32962 ft | 411 kts | 359° |
| 2026-05-06 03:12 | 35.79700 | -84.03390 | 32964 ft | 412 kts | 359° |
| 2026-05-06 03:13 | 35.85322 | -84.01897 | 32955 ft | 416 kts | 1° |
| 2026-05-06 03:13 | 35.90910 | -83.99726 | 32955 ft | 424 kts | 7° |
| 2026-05-06 03:14 | 35.96397 | -83.96725 | 32958 ft | 434 kts | 14° |
| 2026-05-06 03:14 | 36.01721 | -83.93047 | 32945 ft | 439 kts | 17° |
| 2026-05-06 03:15 | 36.07025 | -83.89241 | 32954 ft | 438 kts | 17° |
| 2026-05-06 03:15 | 36.12381 | -83.85403 | 32953 ft | 439 kts | 17° |
| 2026-05-06 03:16 | 36.17663 | -83.81612 | 32957 ft | 438 kts | 17° |
| 2026-05-06 03:16 | 36.22948 | -83.77823 | 32950 ft | 440 kts | 18° |
| 2026-05-06 03:17 | 36.28266 | -83.74004 | 32946 ft | 441 kts | 18° |
| 2026-05-06 03:17 | 36.33583 | -83.70177 | 32945 ft | 439 kts | 18° |
| 2026-05-06 03:18 | 36.38853 | -83.66379 | 32938 ft | 440 kts | 18° |
| 2026-05-06 03:18 | 36.44153 | -83.62553 | 32934 ft | 441 kts | 18° |
| 2026-05-06 03:19 | 36.49445 | -83.58729 | 32933 ft | 442 kts | 18° |
| 2026-05-06 03:19 | 36.54741 | -83.54896 | 32938 ft | 442 kts | 18° |
| 2026-05-06 03:20 | 36.62707 | -83.49118 | 32944 ft | 441 kts | 18° |
| 2026-05-06 03:20 | 36.67976 | -83.45286 | 32944 ft | 441 kts | 18° |
| 2026-05-06 03:21 | 36.73334 | -83.41385 | 32948 ft | 444 kts | 19° |
| 2026-05-06 03:21 | 36.78727 | -83.37452 | 32943 ft | 458 kts | 19° |
| 2026-05-06 03:22 | 36.84313 | -83.33359 | 32941 ft | 464 kts | 20° |
| 2026-05-06 03:22 | 36.89880 | -83.29258 | 32947 ft | 465 kts | 20° |
| 2026-05-06 03:23 | 36.95462 | -83.25140 | 32946 ft | 465 kts | 20° |
| 2026-05-06 03:23 | 37.01017 | -83.21049 | 32947 ft | 466 kts | 20° |
| 2026-05-06 03:24 | 37.06662 | -83.16881 | 32948 ft | 467 kts | 20° |
| 2026-05-06 03:24 | 37.06779 | -83.16795 | 32948 ft | 467 kts | 20° |
| 2026-05-06 03:25 | 37.11730 | -83.13130 | 32937 ft | 466 kts | 20° |
| 2026-05-06 03:25 | 37.17362 | -83.08958 | 32931 ft | 467 kts | 20° |
| 2026-05-06 03:26 | 37.20427 | -83.06683 | 32933 ft | 466 kts | 20° |
| 2026-05-06 03:26 | 37.26078 | -83.02548 | 32921 ft | 464 kts | 18° |
| 2026-05-06 03:27 | 37.31788 | -82.98775 | 32926 ft | 463 kts | 17° |
| 2026-05-06 03:27 | 37.37511 | -82.95039 | 32926 ft | 461 kts | 17° |
| 2026-05-06 03:28 | 37.43186 | -82.91313 | 32924 ft | 460 kts | 17° |
| 2026-05-06 03:28 | 37.48898 | -82.87552 | 32915 ft | 462 kts | 17° |
| 2026-05-06 03:29 | 37.54630 | -82.83772 | 32908 ft | 464 kts | 17° |
| 2026-05-06 03:29 | 37.60348 | -82.79997 | 32906 ft | 463 kts | 17° |
| 2026-05-06 03:30 | 37.66047 | -82.76238 | 32910 ft | 463 kts | 17° |
| 2026-05-06 03:30 | 37.71779 | -82.72438 | 32907 ft | 465 kts | 17° |
| 2026-05-06 03:31 | 37.77520 | -82.68631 | 32899 ft | 466 kts | 17° |
| 2026-05-06 03:31 | 37.83248 | -82.64823 | 32895 ft | 465 kts | 17° |
| 2026-05-06 03:32 | 37.88994 | -82.60993 | 32898 ft | 465 kts | 17° |
| 2026-05-06 03:32 | 37.94746 | -82.57157 | 32891 ft | 467 kts | 17° |
| 2026-05-06 03:33 | 38.00453 | -82.53187 | 32887 ft | 473 kts | 20° |
| 2026-05-06 03:33 | 38.06124 | -82.48839 | 32888 ft | 474 kts | 20° |
| 2026-05-06 03:34 | 38.11780 | -82.44462 | 32890 ft | 471 kts | 20° |
| 2026-05-06 03:34 | 38.17385 | -82.40128 | 32885 ft | 458 kts | 20° |
| 2026-05-06 03:35 | 38.22777 | -82.35948 | 32888 ft | 449 kts | 19° |
| 2026-05-06 03:35 | 38.28153 | -82.31807 | 32886 ft | 448 kts | 20° |
| 2026-05-06 03:36 | 38.33509 | -82.27663 | 32880 ft | 451 kts | 20° |
| 2026-05-06 03:36 | 38.38848 | -82.23516 | 32887 ft | 449 kts | 20° |
| 2026-05-06 03:37 | 38.44253 | -82.19662 | 32870 ft | 435 kts | 12° |
| 2026-05-06 03:37 | 38.47064 | -82.18349 | 32569 ft | 425 kts | 4° |
| 2026-05-06 03:37 | 38.49920 | -82.17516 | 32056 ft | 415 kts | 358° |
| 2026-05-06 03:38 | 38.52772 | -82.17146 | 31390 ft | 406 kts | 351° |
| 2026-05-06 03:38 | 38.55546 | -82.17204 | 30733 ft | 399 kts | 345° |
| 2026-05-06 03:38 | 38.58296 | -82.17615 | 30023 ft | 397 kts | 342° |
| 2026-05-06 03:38 | 38.61025 | -82.18127 | 29277 ft | 399 kts | 342° |
| 2026-05-06 03:39 | 38.63757 | -82.18652 | 28447 ft | 399 kts | 342° |
| 2026-05-06 03:39 | 38.66519 | -82.19176 | 27679 ft | 393 kts | 342° |
| 2026-05-06 03:39 | 38.69201 | -82.19679 | 27030 ft | 388 kts | 342° |
| 2026-05-06 03:39 | 38.71856 | -82.20178 | 26375 ft | 384 kts | 342° |
| 2026-05-06 03:40 | 38.74470 | -82.20670 | 25722 ft | 379 kts | 343° |
| 2026-05-06 03:40 | 38.77081 | -82.21161 | 25088 ft | 375 kts | 342° |
| 2026-05-06 03:40 | 38.79678 | -82.21651 | 24457 ft | 376 kts | 343° |
| 2026-05-06 03:40 | 38.82256 | -82.22140 | 23875 ft | 378 kts | 343° |
| 2026-05-06 03:41 | 38.84867 | -82.22635 | 23345 ft | 379 kts | 343° |
| 2026-05-06 03:41 | 38.87472 | -82.23128 | 22789 ft | 381 kts | 343° |
| 2026-05-06 03:41 | 38.90105 | -82.23627 | 22239 ft | 382 kts | 343° |
| 2026-05-06 03:41 | 38.92750 | -82.24123 | 21753 ft | 382 kts | 344° |
| 2026-05-06 03:42 | 38.95361 | -82.24612 | 21310 ft | 380 kts | 344° |
| 2026-05-06 03:42 | 38.98009 | -82.25106 | 20855 ft | 378 kts | 343° |
| 2026-05-06 03:42 | 39.00604 | -82.25594 | 20419 ft | 377 kts | 343° |
| 2026-05-06 03:42 | 39.03178 | -82.26082 | 19980 ft | 375 kts | 343° |
| 2026-05-06 03:43 | 39.05760 | -82.26569 | 19526 ft | 374 kts | 344° |
| 2026-05-06 03:43 | 39.08346 | -82.27058 | 19083 ft | 372 kts | 344° |
| 2026-05-06 03:43 | 39.10908 | -82.27544 | 18633 ft | 371 kts | 344° |
| 2026-05-06 03:43 | 39.13467 | -82.28026 | 18185 ft | 369 kts | 344° |
| 2026-05-06 03:44 | 39.16005 | -82.28507 | 17750 ft | 367 kts | 344° |
| 2026-05-06 03:44 | 39.18531 | -82.28982 | 17333 ft | 365 kts | 344° |
| 2026-05-06 03:44 | 39.21045 | -82.29460 | 16890 ft | 364 kts | 344° |
| 2026-05-06 03:44 | 39.23547 | -82.29934 | 16461 ft | 362 kts | 344° |
| 2026-05-06 03:45 | 39.26052 | -82.30411 | 16067 ft | 359 kts | 344° |
| 2026-05-06 03:45 | 39.28502 | -82.30877 | 15645 ft | 358 kts | 344° |
| 2026-05-06 03:45 | 39.30950 | -82.31346 | 15219 ft | 357 kts | 344° |
| 2026-05-06 03:45 | 39.33417 | -82.31816 | 14781 ft | 356 kts | 344° |
| 2026-05-06 03:46 | 39.35870 | -82.32285 | 14360 ft | 354 kts | 344° |
| 2026-05-06 03:46 | 39.38330 | -82.32754 | 13915 ft | 353 kts | 344° |
| 2026-05-06 03:46 | 39.40736 | -82.33212 | 13497 ft | 351 kts | 344° |
| 2026-05-06 03:46 | 39.43148 | -82.33675 | 13043 ft | 350 kts | 344° |
| 2026-05-06 03:47 | 39.45578 | -82.34143 | 12561 ft | 350 kts | 344° |
| 2026-05-06 03:47 | 39.47988 | -82.34611 | 12095 ft | 348 kts | 343° |
| 2026-05-06 03:47 | 39.50271 | -82.35442 | 11615 ft | 338 kts | 330° |
| 2026-05-06 03:47 | 39.52325 | -82.36877 | 11118 ft | 328 kts | 318° |
| 2026-05-06 03:48 | 39.54154 | -82.38570 | 10663 ft | 325 kts | 316° |
| 2026-05-06 03:48 | 39.55967 | -82.40311 | 10317 ft | 318 kts | 316° |
| 2026-05-06 03:48 | 39.57713 | -82.41985 | 10168 ft | 306 kts | 316° |
| 2026-05-06 03:48 | 39.59374 | -82.43567 | 10043 ft | 293 kts | 316° |
| 2026-05-06 03:49 | 39.61011 | -82.45125 | 9783 ft | 287 kts | 316° |
| 2026-05-06 03:49 | 39.62627 | -82.46662 | 9414 ft | 285 kts | 315° |
| 2026-05-06 03:49 | 39.64217 | -82.48179 | 9045 ft | 284 kts | 315° |
| 2026-05-06 03:49 | 39.65813 | -82.49697 | 8659 ft | 284 kts | 315° |
| 2026-05-06 03:50 | 39.67398 | -82.51205 | 8285 ft | 283 kts | 316° |
| 2026-05-06 03:50 | 39.68979 | -82.52704 | 7938 ft | 281 kts | 316° |
| 2026-05-06 03:50 | 39.70562 | -82.54208 | 7576 ft | 279 kts | 316° |
| 2026-05-06 03:50 | 39.72143 | -82.55666 | 7209 ft | 280 kts | 317° |
| 2026-05-06 03:51 | 39.73762 | -82.57093 | 6866 ft | 278 kts | 317° |
| 2026-05-06 03:51 | 39.75385 | -82.58512 | 6519 ft | 277 kts | 317° |
| 2026-05-06 03:51 | 39.76978 | -82.59910 | 6177 ft | 276 kts | 318° |
| 2026-05-06 03:51 | 39.78579 | -82.61320 | 5841 ft | 274 kts | 318° |
| 2026-05-06 03:52 | 39.80151 | -82.62695 | 5520 ft | 273 kts | 321° |
| 2026-05-06 03:52 | 39.81902 | -82.63714 | 5197 ft | 281 kts | 339° |
| 2026-05-06 03:52 | 39.83854 | -82.64095 | 4992 ft | 279 kts | 350° |
| 2026-05-06 03:52 | 39.85770 | -82.64266 | 4979 ft | 265 kts | 351° |
| 2026-05-06 03:53 | 39.87548 | -82.64404 | 4973 ft | 250 kts | 351° |
| 2026-05-06 03:53 | 39.89266 | -82.64551 | 4974 ft | 239 kts | 349° |
| 2026-05-06 03:53 | 39.90908 | -82.64821 | 4970 ft | 232 kts | 340° |
| 2026-05-06 03:53 | 39.92424 | -82.65363 | 4840 ft | 223 kts | 334° |
| 2026-05-06 03:54 | 39.93926 | -82.66004 | 4441 ft | 228 kts | 334° |
| 2026-05-06 03:54 | 39.95453 | -82.66672 | 4116 ft | 230 kts | 334° |
| 2026-05-06 03:54 | 39.96782 | -82.67670 | 3868 ft | 214 kts | 303° |
| 2026-05-06 03:54 | 39.97575 | -82.69273 | 3672 ft | 204 kts | 296° |
| 2026-05-06 03:55 | 39.98240 | -82.70869 | 3464 ft | 195 kts | 284° |
| 2026-05-06 03:55 | 39.98381 | -82.72591 | 3171 ft | 189 kts | 270° |
| 2026-05-06 03:55 | 39.98445 | -82.74292 | 2880 ft | 186 kts | 271° |
| 2026-05-06 03:55 | 39.98525 | -82.75923 | 2550 ft | 176 kts | 273° |
| 2026-05-06 03:56 | 39.98608 | -82.77450 | 2320 ft | 162 kts | 273° |
| 2026-05-06 03:56 | 39.98684 | -82.78847 | 2066 ft | 148 kts | 274° |
| 2026-05-06 03:56 | 39.98751 | -82.80151 | 1848 ft | 136 kts | 275° |
| 2026-05-06 03:56 | 39.98813 | -82.81326 | 1658 ft | 124 kts | 276° |
| 2026-05-06 03:57 | 39.98881 | -82.82465 | 1529 ft | 124 kts | 276° |
| 2026-05-06 03:57 | 39.98946 | -82.83575 | 1394 ft | 123 kts | 274° |
| 2026-05-06 03:57 | 39.99003 | -82.84697 | 1200 ft | 123 kts | 275° |
| 2026-05-06 03:57 | 39.99078 | -82.85815 | 1037 ft | 124 kts | 274° |
| 2026-05-06 03:58 | 39.99135 | -82.86942 | 901 ft | 125 kts | 274° |
| 2026-05-06 03:58 | 39.99201 | -82.88055 | 815 ft | 106 kts | 275° |
| 2026-05-06 03:58 | 39.99239 | -82.88708 | 815 ft | 61 kts | 275° |
| 2026-05-06 03:58 | 39.99269 | -82.89237 | 814 ft | 56 kts | 274° |
| 2026-05-06 03:59 | 39.99399 | -82.89674 | 813 ft | 46 kts | 304° |
| 2026-05-06 03:59 | 39.99480 | -82.89758 | 813 ft | 6 kts | 129° |
| 2026-05-06 03:59 | 39.99470 | -82.89695 | 813 ft | 9 kts | 90° |
| 2026-05-06 03:59 | 39.99465 | -82.89558 | 814 ft | 22 kts | 94° |
| 2026-05-06 04:00 | 39.99455 | -82.89334 | 814 ft | 24 kts | 93° |
| 2026-05-06 04:00 | 39.99522 | -82.89174 | 815 ft | 22 kts | 14° |
| 2026-05-06 04:00 | 39.99549 | -82.89066 | 815 ft | 11 kts | 89° |
| 2026-05-06 04:00 | 39.99548 | -82.88934 | 815 ft | 16 kts | 78° |
| 2026-05-06 04:01 | 39.99611 | -82.88865 | 815 ft | 10 kts | 83° |
| 2026-05-06 04:01 | 39.99606 | -82.88773 | 815 ft | 0 kts | 95° |
| 2026-05-06 04:01 | 39.99610 | -82.88763 | 815 ft | 4 kts | 44° |
| 2026-05-06 04:01 | 39.99659 | -82.88742 | 815 ft | 5 kts | 41° |
| 2026-05-06 04:02 | 39.99669 | -82.88714 | 815 ft | 0 kts | 74° |